Ana Sayfa
METAR-TAF:

METAR-TAF

Havaalanları :

Houston, Teksas, Amerika Birleşik Devletleri

Enlem: 29-48-18N, Boylam: 095-53-52W, yükseklik: 51 m

Güncel hava durumu gözlemi

Rapor saat 14:55 UTC de 1 saat ve 21 dakika önce yapıldı.
Rüzgar kuzeydoğudan 8 kt
Sıcaklık 5°C
Nem 93%
Basınç 1025 hPa
Görüş mesafesi: 4.8 km
2100 ft yükseklikte çok bulutlu
hafif çisenti

METAR: KTME 141455Z AUTO 04008KT 3SM -DZ OVC021 05/04 A3026 RMK AO2

Saat: 09:16 (16:16 UTC)


TAF: eksik

4.000'den fazla havaalanı için hava durumu gözlemleri ve tahminleri (METAR ve TAF raporları).

Kullanılabilir istasyonlar harita üzerinde sarı ve kırmızı noktalarla gösterilir.

İstasyonun adını görmek için fareyi noktanın üzerinde gezdirin.

Sonrasında hava gözlem ve tahminlerini görmek için tıklayın.

Haritayı değiştirmek için: yaklaştırmak için siyah artı işaretli yeşil düğmeye ve uzaklaştırmak için de eksi işaretli düğmeye hızla tıklayın; bitişik haritalar için yeşil okları kullanın.


METAR-TAF: